Time;durP1;ratioP1;P1;durP2;ratioP2;P2;SDS_P1;SDS_P2;PMS_P1;PMS_P2;Temp;Humidity;BMP_temperature;BMP_pressure;BME280_temperature;BME280_humidity;BME280_pressure;Samples;Min_cycle;Max_cycle;Signal;HPM_P1;HPM_P2
2021/11/09 00:00:31;;;;;;;5.60;3.73;;;;;;;4.73;100.00;99524.88;5040232;28;20041;-58
2021/11/09 00:02:58;;;;;;;4.53;3.97;;;;;;;4.74;100.00;99532.53;5041151;28;20033;-57
2021/11/09 00:05:26;;;;;;;7.57;4.17;;;;;;;4.77;100.00;99531.72;5043221;28;20033;-57
2021/11/09 00:10:20;;;;;;;6.03;4.13;;;;;;;4.71;100.00;99529.91;5038075;28;20340;-58
2021/11/09 00:12:48;;;;;;;5.53;4.10;;;;;;;4.69;100.00;99534.13;5041991;28;20498;-58
2021/11/09 00:15:16;;;;;;;8.63;3.83;;;;;;;4.60;100.00;99534.81;5043359;28;20027;-58
2021/11/09 00:17:45;;;;;;;9.37;4.60;;;;;;;4.56;100.00;99535.56;5041096;28;20036;-55
2021/11/09 00:20:14;;;;;;;6.53;4.20;;;;;;;4.53;100.00;99545.69;5040380;28;20133;-53
2021/11/09 00:22:41;;;;;;;8.23;4.47;;;;;;;4.52;100.00;99538.03;5040482;28;20033;-53
2021/11/09 00:25:07;;;;;;;8.93;4.33;;;;;;;4.43;100.00;99536.16;5042294;28;20061;-58
2021/11/09 00:27:33;;;;;;;11.10;4.20;;;;;;;4.40;100.00;99542.88;5043184;28;20037;-54
2021/11/09 00:29:59;;;;;;;7.20;3.80;;;;;;;4.34;100.00;99538.50;5041914;28;20426;-57
2021/11/09 00:32:25;;;;;;;6.83;4.40;;;;;;;4.38;100.00;99539.41;5039300;28;20041;-58
2021/11/09 00:34:51;;;;;;;6.40;3.50;;;;;;;4.39;100.00;99552.16;5038172;28;20128;-56
2021/11/09 00:37:17;;;;;;;8.63;4.10;;;;;;;4.43;100.00;99541.22;5038685;28;20044;-57
2021/11/09 00:39:42;;;;;;;8.40;3.90;;;;;;;4.48;100.00;99541.31;5037887;28;20441;-54
2021/11/09 00:42:11;;;;;;;6.27;3.77;;;;;;;4.52;100.00;99541.41;5038175;28;20041;-56
2021/11/09 00:44:38;;;;;;;9.33;3.83;;;;;;;4.58;100.00;99541.53;5040112;28;20033;-56
2021/11/09 00:47:04;;;;;;;5.73;3.77;;;;;;;4.66;100.00;99543.38;5036603;28;20487;-55
2021/11/09 00:49:30;;;;;;;5.87;3.50;;;;;;;4.77;100.00;99544.41;5033449;28;20559;-56
2021/11/09 00:51:56;;;;;;;5.60;3.00;;;;;;;4.83;100.00;99544.56;5035001;28;20109;-57
2021/11/09 00:54:22;;;;;;;13.57;4.20;;;;;;;4.89;100.00;99550.59;5037592;28;20041;-54
2021/11/09 00:56:48;;;;;;;6.73;3.20;;;;;;;4.86;100.00;99552.22;5038147;28;20391;-57
2021/11/09 00:59:14;;;;;;;5.57;3.40;;;;;;;4.90;100.00;99552.31;5038183;28;20030;-57
2021/11/09 01:01:40;;;;;;;6.43;3.70;;;;;;;4.94;100.00;99553.22;5037511;28;20035;-58
2021/11/09 01:04:07;;;;;;;5.83;3.77;;;;;;;4.96;100.00;99546.50;5037228;28;20037;-56
2021/11/09 01:06:33;;;;;;;5.40;3.70;;;;;;;4.95;100.00;99547.31;5036795;28;20095;-53
2021/11/09 01:08:59;;;;;;;4.57;3.30;;;;;;;4.96;100.00;99551.56;5036909;28;20543;-58
2021/11/09 01:11:25;;;;;;;5.20;3.70;;;;;;;4.95;100.00;99549.84;5036697;28;20112;-57
2021/11/09 01:13:51;;;;;;;6.73;3.03;;;;;;;4.92;100.00;99548.09;5037911;28;20029;-58
2021/11/09 01:16:17;;;;;;;5.53;3.20;;;;;;;4.95;100.00;99550.72;5035475;28;20536;-55
2021/11/09 01:18:49;;;;;;;6.13;4.00;;;;;;;5.00;100.00;99550.78;5037199;28;20036;-54
2021/11/09 01:21:17;;;;;;;4.80;3.37;;;;;;;5.03;100.00;99563.53;5037652;28;20100;-59
2021/11/09 01:23:44;;;;;;;8.60;4.00;;;;;;;4.98;100.00;99557.50;5037339;28;20037;-58
2021/11/09 01:26:10;;;;;;;5.50;3.97;;;;;;;5.03;100.00;99563.53;5036918;28;20033;-56
2021/11/09 01:28:37;;;;;;;4.27;3.10;;;;;;;5.05;100.00;99565.28;5038623;28;20474;-57
2021/11/09 01:31:04;;;;;;;6.23;3.37;;;;;;;5.04;100.00;99563.59;5036381;28;20041;-57
2021/11/09 01:33:30;;;;;;;8.10;3.97;;;;;;;5.07;100.00;99576.34;5037333;28;20028;-58
2021/11/09 01:35:56;;;;;;;5.60;4.10;;;;;;;5.04;100.00;99573.75;5037232;28;20028;-59
2021/11/09 01:38:22;;;;;;;9.03;3.73;;;;;;;5.05;100.00;99577.13;5037706;28;20103;-58
2021/11/09 01:40:48;;;;;;;4.90;3.23;;;;;;;5.06;100.00;99574.63;5035285;28;20040;-57
2021/11/09 01:43:15;;;;;;;4.83;3.43;;;;;;;4.98;100.00;99585.47;5037785;28;20045;-58
2021/11/09 01:45:44;;;;;;;5.57;3.63;;;;;;;4.93;100.00;99582.84;5038033;28;20082;-58
2021/11/09 01:48:10;;;;;;;4.73;3.03;;;;;;;4.88;100.00;99583.59;5036787;28;20284;-58
2021/11/09 01:50:39;;;;;;;6.47;3.67;;;;;;;4.83;100.00;99580.97;5036386;28;20037;-58
2021/11/09 01:53:06;;;;;;;7.63;3.87;;;;;;;4.79;100.00;99583.41;5035921;28;20044;-58
2021/11/09 01:55:33;;;;;;;4.97;3.30;;;;;;;4.71;100.00;99584.97;5038725;28;20190;-58
2021/11/09 01:57:59;;;;;;;4.47;3.80;;;;;;;4.64;100.00;99588.19;5037533;28;20141;-58
2021/11/09 02:00:39;;;;;;;4.33;3.53;;;;;;;4.75;100.00;99582.50;5037839;28;20033;-56
2021/11/09 02:03:05;;;;;;;6.87;4.00;;;;;;;4.66;100.00;99584.88;5039794;28;20176;-60
2021/11/09 02:05:31;;;;;;;9.07;3.97;;;;;;;4.59;100.00;99583.88;5038253;28;20429;-56
2021/11/09 02:07:59;;;;;;;6.77;3.67;;;;;;;4.53;100.00;99581.22;5039616;28;20038;-59
2021/11/09 02:10:28;;;;;;;5.17;3.30;;;;;;;4.49;100.00;99579.47;5039650;28;20088;-59
2021/11/09 02:12:54;;;;;;;6.77;3.63;;;;;;;4.45;100.00;99585.28;5042159;28;20045;-61
2021/11/09 02:15:20;;;;;;;8.23;3.13;;;;;;;4.46;100.00;99588.66;5035994;28;20036;-60
2021/11/09 02:17:47;;;;;;;4.27;3.43;;;;;;;4.39;100.00;99595.31;5037070;28;20514;-60
2021/11/09 02:20:18;;;;;;;8.27;3.57;;;;;;;4.40;100.00;99598.72;5040151;28;20484;-60
2021/11/09 02:22:43;;;;;;;4.67;3.37;;;;;;;4.32;100.00;99596.00;5040263;28;20025;-60
2021/11/09 02:25:11;;;;;;;5.60;3.70;;;;;;;4.24;100.00;99595.00;5038421;28;20029;-60
2021/11/09 02:27:39;;;;;;;6.00;3.33;;;;;;;4.12;100.00;99594.72;5036619;28;20432;-60
2021/11/09 02:30:08;;;;;;;8.50;3.43;;;;;;;4.02;100.00;99597.88;5039143;28;20032;-60
2021/11/09 02:32:33;;;;;;;7.60;3.47;;;;;;;3.96;100.00;99582.50;5037619;28;20030;-60
2021/11/09 02:34:59;;;;;;;7.03;3.83;;;;;;;3.91;100.00;99592.56;5037240;28;20159;-59
2021/11/09 02:37:24;;;;;;;5.17;3.60;;;;;;;3.90;100.00;99597.59;5038326;28;20627;-60
2021/11/09 02:39:50;;;;;;;6.53;3.20;;;;;;;3.85;100.00;99597.50;5039755;28;20035;-60
2021/11/09 02:42:18;;;;;;;7.83;4.00;;;;;;;3.99;100.00;99601.19;5037803;28;20061;-60
2021/11/09 02:45:00;;;;;;;6.43;3.67;;;;;;;4.03;100.00;99608.03;5039297;28;20032;-60
2021/11/09 02:47:29;;;;;;;9.23;3.73;;;;;;;4.03;100.00;99608.03;5038485;28;20045;-60
2021/11/09 02:50:01;;;;;;;3.67;2.77;;;;;;;4.14;100.00;99610.84;5040026;28;20021;-60
2021/11/09 02:52:29;;;;;;;6.43;3.33;;;;;;;4.10;100.00;99619.22;5037676;28;20021;-59
2021/11/09 02:55:02;;;;;;;5.13;3.27;;;;;;;4.07;100.00;99609.00;5039604;28;20112;-60
2021/11/09 03:00:18;;;;;;;7.10;3.77;;;;;;;4.24;100.00;99616.97;5039081;28;20487;-59
2021/11/09 03:02:50;;;;;;;5.93;3.70;;;;;;;4.12;100.00;99632.75;5033934;28;20029;-59
2021/11/09 03:05:26;;;;;;;6.73;3.33;;;;;;;4.17;100.00;99633.72;5045107;28;20029;-60
2021/11/09 03:08:13;;;;;;;8.33;4.03;;;;;;;4.04;100.00;99629.19;5037996;28;20543;-57
2021/11/09 03:10:41;;;;;;;4.70;3.30;;;;;;;4.13;100.00;99631.94;5041136;28;20021;-60
2021/11/09 03:13:07;;;;;;;7.13;3.40;;;;;;;4.08;100.00;99631.84;5039343;28;20148;-58
2021/11/09 03:15:34;;;;;;;6.03;3.80;;;;;;;4.09;100.00;99633.56;5045835;28;20063;-58
2021/11/09 03:18:04;;;;;;;4.97;3.07;;;;;;;4.10;100.00;99624.28;5042309;28;20029;-59
2021/11/09 03:20:37;;;;;;;6.53;4.07;;;;;;;4.16;100.00;99633.72;5042453;28;20029;-59
2021/11/09 03:45:11;;;;;;;5.18;4.63;;;;;;;4.04;100.00;99655.44;5065357;28;20040;-60
2021/11/09 03:47:41;;;;;;;9.77;3.60;;;;;;;4.09;100.00;99651.34;5041938;28;20407;-59
2021/11/09 03:50:09;;;;;;;6.40;3.83;;;;;;;4.16;100.00;99657.38;5039575;28;20033;-58
2021/11/09 03:52:46;;;;;;;6.47;3.97;;;;;;;4.22;100.00;99666.84;5040956;28;20035;-56
2021/11/09 03:55:15;;;;;;;7.57;3.07;;;;;;;4.45;100.00;99660.59;5041156;28;20095;-59
2021/11/09 03:58:02;;;;;;;3.63;2.87;;;;;;;4.62;100.00;99661.81;5045116;28;20110;-59
2021/11/09 04:03:00;;;;;;;8.73;3.70;;;;;;;5.07;100.00;99677.13;5046712;28;20025;-57
2021/11/09 04:05:32;;;;;;;4.30;3.10;;;;;;;5.23;100.00;99676.59;5041956;28;20036;-59
2021/11/09 04:13:05;;;;;;;5.20;3.93;;;;;;;5.41;100.00;99674.41;5037198;28;20053;-55
2021/11/09 04:18:14;;;;;;;9.33;3.40;;;;;;;5.57;100.00;99682.28;5040196;28;20041;-58
2021/11/09 05:10:43;;;;;;;9.60;4.47;;;;;;;5.98;100.00;99717.81;5039901;28;20565;-59
2021/11/09 05:13:09;;;;;;;6.83;3.07;;;;;;;5.98;100.00;99715.28;5040226;28;20049;-59
2021/11/09 05:15:34;;;;;;;4.90;2.83;;;;;;;5.96;100.00;99719.50;5038969;28;20029;-58
2021/11/09 05:18:00;;;;;;;4.83;2.70;;;;;;;5.99;100.00;99728.84;5039432;28;20040;-58
2021/11/09 05:20:26;;;;;;;4.73;3.17;;;;;;;6.02;100.00;99728.94;5039370;28;20071;-60
2021/11/09 05:22:52;;;;;;;7.43;3.43;;;;;;;6.12;100.00;99725.69;5037121;28;20028;-59
2021/11/09 05:25:18;;;;;;;5.93;3.60;;;;;;;6.08;100.00;99734.09;5038070;28;20522;-57
2021/11/09 05:27:46;;;;;;;4.83;3.07;;;;;;;6.11;100.00;99731.59;5040794;28;20068;-60
2021/11/09 05:30:12;;;;;;;4.07;2.97;;;;;;;6.08;100.00;99730.69;5038021;28;20122;-59
2021/11/09 05:32:37;;;;;;;5.60;2.90;;;;;;;6.10;100.00;99727.38;5041358;28;20057;-60
2021/11/09 05:35:04;;;;;;;5.03;2.87;;;;;;;6.12;100.00;99732.47;5039717;28;20033;-60
2021/11/09 05:37:35;;;;;;;7.87;3.87;;;;;;;6.06;100.00;99735.78;5038191;28;20103;-60
2021/11/09 05:40:05;;;;;;;4.43;3.57;;;;;;;6.18;100.00;99745.31;5040559;28;20060;-60
2021/11/09 05:42:32;;;;;;;6.33;3.13;;;;;;;6.13;100.00;99739.28;5035288;28;20061;-60
2021/11/09 05:44:57;;;;;;;7.70;3.43;;;;;;;6.11;100.00;99751.97;5040093;28;20025;-60
2021/11/09 05:47:24;;;;;;;8.53;3.70;;;;;;;6.08;100.00;99751.94;5038453;28;20521;-61
2021/11/09 05:49:50;;;;;;;7.07;3.50;;;;;;;6.12;100.00;99760.47;5038609;28;20029;-59
2021/11/09 05:52:16;;;;;;;7.63;2.93;;;;;;;6.12;100.00;99763.00;5038990;28;20036;-56
2021/11/09 05:54:41;;;;;;;4.67;3.13;;;;;;;6.11;100.00;99761.31;5039424;28;20029;-60
2021/11/09 05:57:07;;;;;;;6.83;3.77;;;;;;;6.12;100.00;99770.66;5036840;28;20037;-60
2021/11/09 05:59:33;;;;;;;4.40;2.77;;;;;;;6.18;100.00;99775.84;5037508;28;20138;-61
2021/11/09 06:01:58;;;;;;;8.00;2.73;;;;;;;6.24;100.00;99779.34;5037881;28;20037;-60
2021/11/09 06:04:25;;;;;;;8.23;3.50;;;;;;;6.21;100.00;99789.50;5036934;28;20025;-58
2021/11/09 06:06:51;;;;;;;4.27;2.93;;;;;;;6.18;100.00;99802.19;5036553;28;20438;-59
2021/11/09 06:09:17;;;;;;;4.87;3.00;;;;;;;6.13;100.00;99801.25;5039331;28;20025;-58
2021/11/09 06:11:42;;;;;;;7.97;3.13;;;;;;;6.13;100.00;99806.34;5037013;28;20052;-58
2021/11/09 06:14:08;;;;;;;3.70;2.73;;;;;;;6.13;100.00;99808.00;5038322;28;20079;-58
2021/11/09 06:16:34;;;;;;;6.57;3.37;;;;;;;6.13;100.00;99811.41;5035638;28;20043;-57
2021/11/09 06:18:59;;;;;;;8.40;3.50;;;;;;;6.11;100.00;99814.78;5035411;28;20116;-56
2021/11/09 06:21:25;;;;;;;5.40;3.43;;;;;;;6.07;100.00;99823.19;5036109;28;20116;-58
2021/11/09 06:23:51;;;;;;;7.03;3.63;;;;;;;6.05;100.00;99830.81;5039529;28;20475;-58
2021/11/09 06:26:17;;;;;;;5.83;4.20;;;;;;;6.06;100.00;99831.66;5033550;28;20037;-56
2021/11/09 06:28:43;;;;;;;9.37;4.57;;;;;;;6.05;100.00;99840.13;5032702;28;20349;-59
2021/11/09 06:31:09;;;;;;;5.73;3.53;;;;;;;6.05;100.00;99846.06;5037533;28;20383;-56
2021/11/09 06:33:36;;;;;;;11.87;4.17;;;;;;;6.07;100.00;99846.94;5034727;28;20029;-57
2021/11/09 06:36:02;;;;;;;6.17;3.90;;;;;;;6.10;100.00;99849.56;5033317;28;20332;-55
2021/11/09 06:38:28;;;;;;;7.57;4.60;;;;;;;6.14;100.00;99858.13;5033397;28;20033;-56
2021/11/09 06:40:53;;;;;;;9.23;5.77;;;;;;;6.15;100.00;99865.78;5035990;28;20052;-57
2021/11/09 06:43:19;;;;;;;9.47;5.27;;;;;;;6.21;100.00;99872.66;5037216;28;20040;-59
2021/11/09 06:45:45;;;;;;;9.40;4.70;;;;;;;6.25;100.00;99867.66;5038703;28;20037;-55
2021/11/09 06:48:11;;;;;;;7.63;4.13;;;;;;;6.29;100.00;99884.69;5040317;28;20037;-56
2021/11/09 06:50:37;;;;;;;8.07;4.70;;;;;;;6.32;100.00;99887.28;5043723;28;20024;-56
2021/11/09 06:53:02;;;;;;;10.30;3.97;;;;;;;6.33;100.00;99883.91;5038295;28;20025;-57
2021/11/09 06:55:28;;;;;;;10.17;5.53;;;;;;;6.26;100.00;99888.88;5038648;28;20090;-56
2021/11/09 06:57:55;;;;;;;8.63;4.27;;;;;;;6.33;100.00;99895.78;5033972;28;20072;-54
2021/11/09 07:00:23;;;;;;;10.53;5.07;;;;;;;6.36;100.00;99901.84;5041219;28;20040;-58
2021/11/09 07:02:48;;;;;;;9.23;4.20;;;;;;;6.30;100.00;99906.78;5030866;28;20041;-56
2021/11/09 07:05:14;;;;;;;8.90;4.57;;;;;;;6.30;100.00;99908.47;5037944;28;20095;-54
2021/11/09 07:07:42;;;;;;;7.70;4.60;;;;;;;6.18;100.00;99909.13;5038481;28;20483;-56
2021/11/09 07:10:08;;;;;;;8.40;5.53;;;;;;;6.12;100.00;99909.00;5036517;28;20498;-54
2021/11/09 07:12:35;;;;;;;8.90;4.87;;;;;;;6.08;100.00;99919.94;5036144;28;20068;-55
2021/11/09 07:15:01;;;;;;;5.97;4.60;;;;;;;6.08;100.00;99921.63;5035265;28;20514;-55
2021/11/09 07:17:27;;;;;;;7.87;4.57;;;;;;;6.05;100.00;99924.97;5036732;28;20057;-57
2021/11/09 07:19:52;;;;;;;6.57;4.17;;;;;;;6.01;100.00;99923.22;5036263;28;20112;-57
2021/11/09 07:22:23;;;;;;;13.40;4.23;;;;;;;5.99;100.00;99935.03;5035537;28;20033;-55
2021/11/09 07:24:49;;;;;;;11.80;4.17;;;;;;;5.75;100.00;99935.38;5035440;28;20439;-58
2021/11/09 07:27:15;;;;;;;10.57;4.10;;;;;;;5.85;100.00;99932.19;5034567;28;20719;-55
2021/11/09 07:29:45;;;;;;;10.33;4.83;;;;;;;5.96;100.00;99945.16;5034720;28;20135;-57
2021/11/09 07:32:11;;;;;;;8.17;4.07;;;;;;;5.98;100.00;99939.25;5036331;28;20069;-56
2021/11/09 07:34:37;;;;;;;9.67;4.50;;;;;;;6.08;100.00;99944.53;5034836;28;20060;-55
2021/11/09 07:37:03;;;;;;;7.70;3.73;;;;;;;6.20;100.00;99945.63;5035340;28;20029;-59
2021/11/09 07:39:28;;;;;;;6.07;3.47;;;;;;;6.27;100.00;99942.41;5031949;28;20507;-58
2021/11/09 07:41:54;;;;;;;6.63;3.80;;;;;;;6.35;100.00;99951.03;5034611;28;20091;-59
2021/11/09 07:44:19;;;;;;;7.90;3.87;;;;;;;6.42;100.00;99947.78;5036393;28;20125;-58
2021/11/09 07:46:45;;;;;;;7.30;3.83;;;;;;;6.56;100.00;99953.13;5036498;28;20387;-59
2021/11/09 07:49:10;;;;;;;6.83;3.87;;;;;;;6.66;100.00;99949.06;5037767;28;20140;-56
2021/11/09 07:51:36;;;;;;;8.30;4.10;;;;;;;6.82;100.00;99966.34;5039025;28;20033;-57
2021/11/09 07:54:02;;;;;;;7.83;4.17;;;;;;;6.97;100.00;99964.03;5039199;28;20034;-59
2021/11/09 07:56:33;;;;;;;13.93;4.10;;;;;;;6.93;100.00;99969.06;5041541;28;20033;-59
2021/11/09 08:01:44;;;;;;;10.90;4.47;;;;;;;7.18;100.00;99976.28;5038877;28;20109;-58
2021/11/09 08:04:16;;;;;;;9.30;4.20;;;;;;;7.19;100.00;99971.22;5038268;28;20029;-58
2021/11/09 08:11:47;;;;;;;4.87;4.33;;;;;;;7.71;100.00;99977.94;5039788;28;20045;-55
2021/11/09 08:14:12;;;;;;;10.00;4.33;;;;;;;7.66;100.00;99983.81;5039228;28;20026;-59
2021/11/09 08:16:38;;;;;;;7.53;3.83;;;;;;;7.86;100.00;99987.50;5038481;28;20103;-58
2021/11/09 08:19:05;;;;;;;9.87;4.87;;;;;;;7.98;100.00;99982.56;5037837;28;20022;-58
2021/11/09 08:21:35;;;;;;;9.87;4.27;;;;;;;8.16;99.30;99987.91;5036962;28;20033;-60
2021/11/09 08:24:01;;;;;;;4.73;3.43;;;;;;;8.15;100.00;99998.94;5039572;28;20034;-57
2021/11/09 08:26:27;;;;;;;13.57;4.30;;;;;;;8.20;100.00;99999.88;5037156;28;20136;-55
2021/11/09 08:28:55;;;;;;;6.73;3.57;;;;;;;8.38;97.56;99999.28;5039923;28;20053;-59
2021/11/09 08:31:23;;;;;;;5.50;3.10;;;;;;;8.48;96.45;100001.09;5039248;28;20816;-59
2021/11/09 08:33:50;;;;;;;5.80;3.70;;;;;;;8.43;96.89;100001.88;5039234;28;20040;-57
2021/11/09 08:36:21;;;;;;;8.33;3.87;;;;;;;8.31;97.56;100001.75;5038386;28;20043;-58
2021/11/09 08:38:47;;;;;;;8.57;3.77;;;;;;;8.46;97.94;100002.78;5039366;28;20047;-58
2021/11/09 08:41:12;;;;;;;8.90;4.03;;;;;;;8.47;100.00;100011.31;5037413;28;20120;-54
2021/11/09 08:43:44;;;;;;;7.53;4.20;;;;;;;8.57;98.36;100011.41;5039630;28;20554;-55
2021/11/09 08:46:20;;;;;;;5.47;3.30;;;;;;;8.62;95.65;100011.47;5038730;28;20028;-56
2021/11/09 08:48:49;;;;;;;5.03;3.33;;;;;;;8.76;92.92;100016.72;5039377;28;20120;-56
2021/11/09 08:51:17;;;;;;;4.87;3.30;;;;;;;8.84;90.37;100015.97;5038765;28;20037;-58
2021/11/09 08:53:53;;;;;;;3.83;3.23;;;;;;;8.84;89.09;100015.09;5036993;28;20453;-59
2021/11/09 09:04:20;;;;;;;5.67;2.60;;;;;;;9.00;85.59;100033.16;5038075;28;20025;-59
2021/11/09 09:06:51;;;;;;;4.87;2.93;;;;;;;9.05;83.68;100035.78;5036722;28;20368;-58
2021/11/09 09:09:17;;;;;;;7.67;3.30;;;;;;;8.82;86.41;100039.81;5037447;28;20034;-58
2021/11/09 09:11:43;;;;;;;4.30;2.40;;;;;;;8.79;85.43;100042.31;5035093;28;20044;-57
2021/11/09 09:14:10;;;;;;;5.47;2.73;;;;;;;8.92;83.96;100047.59;5037350;28;20142;-59
2021/11/09 09:16:38;;;;;;;3.10;2.00;;;;;;;8.85;83.91;100043.25;5038218;28;20128;-58
2021/11/09 09:19:05;;;;;;;4.50;2.20;;;;;;;8.81;84.98;100046.63;5036427;28;20021;-60
2021/11/09 09:24:09;;;;;;;5.33;2.60;;;;;;;9.17;81.64;100049.53;5036672;28;20046;-60
2021/11/09 09:56:16;;;;;;;3.85;2.03;;;;;;;10.50;71.43;100043.63;5036532;28;20470;-63
2021/11/09 09:58:42;;;;;;;4.32;2.55;;;;;;;10.54;71.11;100038.53;5036227;28;20026;-61
2021/11/09 10:01:07;;;;;;;3.30;2.22;;;;;;;10.77;69.86;100042.88;5036803;28;20099;-62
2021/11/09 10:03:39;;;;;;;4.72;2.53;;;;;;;10.92;68.09;100042.91;5035286;28;20129;-61
2021/11/09 10:06:06;;;;;;;3.63;2.22;;;;;;;10.99;66.42;100048.06;5036366;28;20143;-62
2021/11/09 10:08:49;;;;;;;5.72;2.53;;;;;;;11.08;63.86;100051.50;5037000;28;20040;-60
2021/11/09 10:11:35;;;;;;;2.45;2.15;;;;;;;11.20;62.74;100048.97;5033377;28;20041;-59
2021/11/09 10:14:06;;;;;;;2.47;2.30;;;;;;;11.11;62.06;100051.50;5036661;28;20044;-60
2021/11/09 10:16:34;;;;;;;4.97;2.13;;;;;;;10.85;61.60;100048.88;5034937;28;20037;-61
2021/11/09 10:19:00;;;;;;;2.65;2.13;;;;;;;11.02;61.88;100056.63;5036098;28;20479;-60
2021/11/09 10:21:38;;;;;;;3.55;2.10;;;;;;;11.38;61.78;100046.38;5036430;28;20035;-61
2021/11/09 10:24:23;;;;;;;2.20;1.80;;;;;;;11.38;60.81;100043.81;5036751;28;20107;-60
2021/11/09 10:26:48;;;;;;;2.97;1.90;;;;;;;11.49;60.25;100044.69;5037087;28;20436;-59
2021/11/09 10:29:13;;;;;;;2.67;2.28;;;;;;;11.74;57.28;100046.44;5038892;28;20041;-58
2021/11/09 10:31:42;;;;;;;3.17;1.88;;;;;;;11.84;57.41;100036.97;5038288;28;20037;-59
2021/11/09 10:34:29;;;;;;;3.92;3.00;;;;;;;12.17;56.60;100044.63;5036769;28;20087;-59
2021/11/09 10:37:29;;;;;;;3.10;2.55;;;;;;;12.25;57.28;100045.47;5037433;28;20061;-61
2021/11/09 10:39:57;;;;;;;3.47;2.20;;;;;;;12.19;57.40;100039.47;5013191;28;20082;-62
2021/11/09 10:42:26;;;;;;;2.65;2.38;;;;;;;11.97;58.61;100048.94;5035233;28;20491;-60
2021/11/09 10:44:58;;;;;;;3.92;2.70;;;;;;;11.73;59.08;100043.84;5069278;28;20565;-59
2021/11/09 10:47:26;;;;;;;2.08;1.83;;;;;;;11.54;60.02;100053.28;5036505;28;20071;-60
2021/11/09 10:49:55;;;;;;;4.68;2.10;;;;;;;11.51;60.01;100048.09;5038978;28;20391;-61
2021/11/09 10:52:30;;;;;;;2.78;1.75;;;;;;;11.76;59.13;100049.84;5038826;28;20486;-60
2021/11/09 10:55:15;;;;;;;5.78;2.47;;;;;;;11.89;57.23;100045.53;5036384;28;20468;-61
2021/11/09 10:57:53;;;;;;;6.35;4.70;;;;;;;11.94;55.22;100048.09;5040355;28;20471;-60
2021/11/09 11:06:16;;;;;;;2.63;1.70;;;;;;;11.88;52.66;100031.00;5037261;28;20052;-59
2021/11/09 11:08:42;;;;;;;2.15;1.73;;;;;;;11.85;52.97;100041.25;5040990;28;20033;-61
2021/11/09 11:11:37;;;;;;;1.52;1.40;;;;;;;11.68;51.43;100040.38;5036747;28;20091;-60
2021/11/09 11:14:05;;;;;;;1.20;1.10;;;;;;;11.66;49.18;100044.69;5036419;28;20048;-58
2021/11/09 11:16:37;;;;;;;1.15;1.15;;;;;;;11.63;48.43;100042.09;5044802;28;20103;-58
2021/11/09 11:19:04;;;;;;;2.33;1.40;;;;;;;11.54;49.99;100030.16;5046200;28;20055;-58
2021/11/09 11:21:30;;;;;;;4.55;1.67;;;;;;;11.41;51.93;100036.13;5034485;28;20061;-58
2021/11/09 11:23:56;;;;;;;2.17;1.50;;;;;;;11.19;52.93;100039.53;5038979;28;20048;-59
2021/11/09 11:26:23;;;;;;;1.90;1.50;;;;;;;11.16;52.30;100029.28;5048662;28;20111;-58
2021/11/09 11:28:50;;;;;;;3.15;1.60;;;;;;;11.22;53.11;100035.25;5044181;28;20021;-57
2021/11/09 11:31:18;;;;;;;1.63;1.50;;;;;;;11.28;54.00;100035.28;5036226;28;20033;-58
2021/11/09 11:33:44;;;;;;;3.17;2.22;;;;;;;11.26;54.14;100034.41;5035691;28;20072;-59
2021/11/09 11:36:10;;;;;;;1.73;1.60;;;;;;;11.31;53.97;100042.97;5038773;28;20041;-58
2021/11/09 11:38:41;;;;;;;1.77;1.48;;;;;;;11.14;54.17;100021.56;5036197;28;20071;-59
2021/11/09 11:41:07;;;;;;;2.03;1.85;;;;;;;11.19;53.36;100026.72;5035475;28;20487;-60
2021/11/09 11:43:41;;;;;;;2.30;1.60;;;;;;;11.58;52.75;100021.59;5036523;28;20156;-59
2021/11/09 11:46:08;;;;;;;4.88;1.92;;;;;;;11.63;52.61;100022.41;5043212;28;20594;-59
2021/11/09 11:49:17;;;;;;;1.90;1.80;;;;;;;11.82;52.20;100024.16;5040063;28;20421;-60
2021/11/09 11:51:45;;;;;;;1.88;1.70;;;;;;;11.76;52.98;100010.44;5021648;28;20037;-61
2021/11/09 11:54:12;;;;;;;1.90;1.55;;;;;;;11.69;52.86;100012.13;5052373;28;20045;-61
2021/11/09 11:56:44;;;;;;;1.88;1.77;;;;;;;11.48;52.73;100016.44;5051473;28;20033;-61
2021/11/09 11:59:22;;;;;;;2.08;1.60;;;;;;;11.69;52.90;100019.84;5043699;28;20030;-61
2021/11/09 12:01:48;;;;;;;4.30;2.00;;;;;;;11.63;52.67;100016.41;5038487;28;20463;-60
2021/11/09 12:04:35;;;;;;;2.65;1.70;;;;;;;11.69;52.71;100014.72;5041112;28;20120;-59
2021/11/09 12:07:02;;;;;;;3.55;2.33;;;;;;;11.63;52.47;100013.84;5042232;28;20538;-58
2021/11/09 12:09:33;;;;;;;2.30;2.08;;;;;;;11.88;52.57;100003.56;5037845;28;20132;-60
2021/11/09 12:12:19;;;;;;;2.22;1.70;;;;;;;11.98;52.21;100006.13;5034290;28;20045;-58
2021/11/09 12:14:48;;;;;;;2.88;1.67;;;;;;;11.87;51.65;100013.88;5046087;28;20036;-60
2021/11/09 12:17:36;;;;;;;2.30;1.73;;;;;;;11.81;51.23;100017.28;5038756;28;20076;-58
2021/11/09 12:20:39;;;;;;;3.67;2.60;;;;;;;11.89;50.60;100015.56;5033942;28;20029;-60
2021/11/09 12:23:16;;;;;;;4.78;2.25;;;;;;;11.72;50.90;100017.31;5042378;28;20103;-58
2021/11/09 12:25:42;;;;;;;4.57;3.00;;;;;;;11.75;52.16;100016.47;5039856;28;20106;-59
2021/11/09 12:28:13;;;;;;;3.70;2.40;;;;;;;11.93;52.04;100010.41;5038991;28;20079;-60
2021/11/09 12:30:40;;;;;;;3.42;1.83;;;;;;;11.89;52.77;100004.41;5034372;28;20545;-59
2021/11/09 12:33:26;;;;;;;3.45;3.15;;;;;;;11.92;52.36;100011.28;5038539;28;20487;-60
2021/11/09 12:35:57;;;;;;;2.92;2.28;;;;;;;11.95;52.07;100016.41;5037334;28;20535;-59
2021/11/09 12:38:48;;;;;;;2.25;2.00;;;;;;;12.00;52.31;100012.13;5034633;28;20059;-59
2021/11/09 12:41:15;;;;;;;2.47;2.15;;;;;;;11.86;52.49;100014.72;5039561;28;20044;-60
2021/11/09 12:43:48;;;;;;;2.70;2.50;;;;;;;11.90;53.41;100009.56;5035288;28;20049;-59
2021/11/09 12:49:05;;;;;;;3.90;2.47;;;;;;;11.81;52.21;100012.16;5034139;28;20033;-59
2021/11/09 12:51:37;;;;;;;4.32;2.53;;;;;;;11.95;52.47;99995.84;5036697;28;20025;-60
2021/11/09 12:54:23;;;;;;;2.45;1.70;;;;;;;11.81;53.35;99990.72;5037235;28;20494;-58
2021/11/09 12:56:58;;;;;;;3.28;1.73;;;;;;;11.81;53.72;100001.88;5035577;28;20483;-59
2021/11/09 12:59:29;;;;;;;;;;;;;;;11.79;53.47;100001.03;5037754;28;20029;-56
2021/11/09 13:05:11;;;;;;;4.07;2.50;;;;;;;11.85;52.82;100000.16;5027914;28;20076;-59
2021/11/09 13:07:39;;;;;;;2.72;2.33;;;;;;;11.74;53.24;100002.75;5036075;28;20025;-60
2021/11/09 13:10:12;;;;;;;2.05;1.95;;;;;;;11.75;53.77;100006.19;5040002;28;20025;-59
2021/11/09 13:12:40;;;;;;;10.70;5.70;;;;;;;11.71;54.64;100004.44;5040286;28;20123;-58
2021/11/09 13:15:08;;;;;;;4.53;3.17;;;;;;;11.85;53.30;99998.44;5032375;28;20079;-56
2021/11/09 13:17:41;;;;;;;7.00;4.72;;;;;;;11.73;53.48;100006.19;5040981;28;20029;-58
2021/11/09 13:20:34;;;;;;;5.07;3.08;;;;;;;11.79;53.32;100010.47;5037775;28;20191;-59
2021/11/09 13:23:12;;;;;;;3.28;2.17;;;;;;;11.77;53.25;100004.44;5036101;28;20029;-60
2021/11/09 13:25:54;;;;;;;3.47;2.05;;;;;;;11.78;53.19;99999.31;5030187;28;20044;-60
2021/11/09 13:28:26;;;;;;;2.30;1.92;;;;;;;11.71;53.26;100000.13;5034979;28;20575;-59
2021/11/09 13:31:07;;;;;;;3.10;2.20;;;;;;;11.70;53.13;100002.72;5037991;28;20033;-61
2021/11/09 13:33:41;;;;;;;2.42;2.20;;;;;;;11.65;53.24;99992.47;5035053;28;20033;-61
2021/11/09 13:36:08;;;;;;;2.63;1.88;;;;;;;11.58;53.60;100002.75;5033855;28;20037;-61
2021/11/09 13:38:38;;;;;;;3.92;1.95;;;;;;;11.58;54.34;99998.47;5037289;28;20032;-60
2021/11/09 13:41:21;;;;;;;4.05;1.70;;;;;;;11.51;54.80;99994.19;5035242;28;20476;-61
2021/11/09 13:43:55;;;;;;;3.28;2.03;;;;;;;11.52;54.37;100002.75;5032900;28;20491;-60
2021/11/09 13:46:26;;;;;;;3.43;2.40;;;;;;;11.38;54.63;99987.34;5034018;28;20032;-58
2021/11/09 13:48:55;;;;;;;2.00;1.90;;;;;;;11.44;55.03;99995.03;5036190;28;20037;-57
2021/11/09 13:51:27;;;;;;;2.22;2.10;;;;;;;11.34;55.88;99988.19;5035332;28;20028;-57
2021/11/09 13:54:04;;;;;;;3.15;2.17;;;;;;;11.21;55.60;99994.19;5034787;28;20360;-59
2021/11/09 13:56:30;;;;;;;3.15;2.00;;;;;;;11.33;55.57;99999.34;5032136;28;20164;-58
2021/11/09 13:59:07;;;;;;;3.08;2.00;;;;;;;11.23;55.55;100001.03;5035808;28;20031;-58
2021/11/09 14:04:36;;;;;;;6.10;2.53;;;;;;;11.16;56.54;100006.19;5032539;28;20033;-59
2021/11/09 14:17:57;;;;;;;4.20;2.15;;;;;;;10.84;57.08;100011.25;5035854;28;20095;-57
2021/11/09 14:20:24;;;;;;;5.68;3.42;;;;;;;10.82;56.59;100007.84;5035547;28;20029;-59
2021/11/09 14:23:12;;;;;;;7.95;3.30;;;;;;;10.72;57.16;100003.53;5032092;28;20091;-57